sensor_id;sensor_type;location;lat;lon;timestamp;pressure;altitude;pressure_sealevel;temperature;humidity
39075;BME280;24826;52.070;20.970;2023-02-14T00:03:01;61450.34;;;-147.04;97.43
39075;BME280;24826;52.070;20.970;2023-02-14T00:05:48;61454.34;;;-147.04;97.44
39075;BME280;24826;52.070;20.970;2023-02-14T00:08:33;61400.66;;;-147.04;97.93
39075;BME280;24826;52.070;20.970;2023-02-14T00:11:17;61428.47;;;-147.04;97.52
39075;BME280;24826;52.070;20.970;2023-02-14T00:14:03;61422.53;;;-147.04;97.81
39075;BME280;24826;52.070;20.970;2023-02-14T00:17:06;61388.72;;;-147.04;97.92
39075;BME280;24826;52.070;20.970;2023-02-14T00:19:50;61424.50;;;-147.04;97.88
39075;BME280;24826;52.070;20.970;2023-02-14T00:22:35;61394.69;;;-147.04;97.59
39075;BME280;24826;52.070;20.970;2023-02-14T00:25:19;61428.47;;;-147.04;97.75
39075;BME280;24826;52.070;20.970;2023-02-14T00:28:04;61436.44;;;-147.04;97.90
39075;BME280;24826;52.070;20.970;2023-02-14T00:30:48;61436.44;;;-147.04;98.22
39075;BME280;24826;52.070;20.970;2023-02-14T00:33:33;61428.47;;;-147.04;97.92
39075;BME280;24826;52.070;20.970;2023-02-14T00:36:18;61402.63;;;-147.04;97.92
39075;BME280;24826;52.070;20.970;2023-02-14T00:39:05;61482.19;;;-147.04;98.15
39075;BME280;24826;52.070;20.970;2023-02-14T00:41:50;61408.59;;;-147.04;98.01
39075;BME280;24826;52.070;20.970;2023-02-14T00:44:34;61420.53;;;-147.04;97.81
39075;BME280;24826;52.070;20.970;2023-02-14T00:47:19;61428.47;;;-147.04;97.74
39075;BME280;24826;52.070;20.970;2023-02-14T00:50:04;61428.47;;;-147.04;97.77
39075;BME280;24826;52.070;20.970;2023-02-14T00:52:48;61436.44;;;-147.04;98.20
39075;BME280;24826;52.070;20.970;2023-02-14T00:55:32;61414.56;;;-147.04;98.13
39075;BME280;24826;52.070;20.970;2023-02-14T00:58:17;61434.44;;;-147.04;98.17
39075;BME280;24826;52.070;20.970;2023-02-14T01:01:02;61408.59;;;-147.04;98.42
39075;BME280;24826;52.070;20.970;2023-02-14T01:03:46;61372.81;;;-147.04;98.37
39075;BME280;24826;52.070;20.970;2023-02-14T01:06:30;61460.31;;;-147.04;98.13
39075;BME280;24826;52.070;20.970;2023-02-14T01:09:15;61408.59;;;-147.04;98.15
39075;BME280;24826;52.070;20.970;2023-02-14T01:11:59;61406.63;;;-147.04;97.66
39075;BME280;24826;52.070;20.970;2023-02-14T01:14:44;61428.47;;;-147.04;98.37
39075;BME280;24826;52.070;20.970;2023-02-14T01:17:28;61420.53;;;-147.04;97.85
39075;BME280;24826;52.070;20.970;2023-02-14T01:20:12;61414.56;;;-147.04;98.07
39075;BME280;24826;52.070;20.970;2023-02-14T01:22:58;61418.53;;;-147.04;98.40
39075;BME280;24826;52.070;20.970;2023-02-14T01:25:42;61438.44;;;-147.04;98.40
39075;BME280;24826;52.070;20.970;2023-02-14T01:28:26;61444.41;;;-147.04;99.04
39075;BME280;24826;52.070;20.970;2023-02-14T01:31:13;61438.44;;;-147.04;99.23
39075;BME280;24826;52.070;20.970;2023-02-14T01:33:59;61394.69;;;-147.04;99.06
39075;BME280;24826;52.070;20.970;2023-02-14T01:36:43;61426.50;;;-147.04;99.39
39075;BME280;24826;52.070;20.970;2023-02-14T01:39:28;61416.56;;;-147.04;99.17
39075;BME280;24826;52.070;20.970;2023-02-14T01:42:12;61436.44;;;-147.04;99.12
39075;BME280;24826;52.070;20.970;2023-02-14T01:47:52;61440.41;;;-147.04;99.97
39075;BME280;24826;52.070;20.970;2023-02-14T01:50:40;61468.25;;;-147.04;99.79
39075;BME280;24826;52.070;20.970;2023-02-14T01:53:27;61384.75;;;-147.04;99.47
39075;BME280;24826;52.070;20.970;2023-02-14T01:56:18;61438.44;;;-147.04;100.00
39075;BME280;24826;52.070;20.970;2023-02-14T01:59:06;61418.53;;;-147.04;100.00
39075;BME280;24826;52.070;20.970;2023-02-14T02:01:53;61384.75;;;-147.04;100.00
39075;BME280;24826;52.070;20.970;2023-02-14T02:04:41;61414.56;;;-147.04;100.00
39075;BME280;24826;52.070;20.970;2023-02-14T02:07:28;61422.53;;;-147.04;99.70
39075;BME280;24826;52.070;20.970;2023-02-14T02:10:12;61392.69;;;-147.04;100.00
39075;BME280;24826;52.070;20.970;2023-02-14T02:13:02;61416.56;;;-147.04;100.00
39075;BME280;24826;52.070;20.970;2023-02-14T02:16:40;61430.47;;;-147.04;100.00
39075;BME280;24826;52.070;20.970;2023-02-14T02:32:37;61416.56;;;-147.04;100.00
39075;BME280;24826;52.070;20.970;2023-02-14T02:39:44;61412.56;;;-147.04;100.00
39075;BME280;24826;52.070;20.970;2023-02-14T02:45:23;61416.56;;;-147.04;100.00
39075;BME280;24826;52.070;20.970;2023-02-14T02:48:17;61436.44;;;-147.04;100.00
39075;BME280;24826;52.070;20.970;2023-02-14T02:51:09;61436.44;;;-147.04;100.00
39075;BME280;24826;52.070;20.970;2023-02-14T02:54:19;61446.38;;;-147.04;100.00
39075;BME280;24826;52.070;20.970;2023-02-14T02:57:14;61420.53;;;-147.04;100.00
39075;BME280;24826;52.070;20.970;2023-02-14T03:00:01;61444.41;;;-147.04;100.00
39075;BME280;24826;52.070;20.970;2023-02-14T03:02:50;61428.47;;;-147.04;100.00
39075;BME280;24826;52.070;20.970;2023-02-14T03:05:54;61406.63;;;-147.04;100.00
39075;BME280;24826;52.070;20.970;2023-02-14T03:08:39;61436.44;;;-147.04;100.00
39075;BME280;24826;52.070;20.970;2023-02-14T03:11:23;61452.34;;;-147.04;100.00
39075;BME280;24826;52.070;20.970;2023-02-14T03:14:47;61442.41;;;-147.04;100.00
39075;BME280;24826;52.070;20.970;2023-02-14T03:23:56;61440.41;;;-147.04;100.00
39075;BME280;24826;52.070;20.970;2023-02-14T03:26:50;61426.50;;;-147.04;100.00
39075;BME280;24826;52.070;20.970;2023-02-14T03:29:40;61416.56;;;-147.04;100.00
39075;BME280;24826;52.070;20.970;2023-02-14T03:32:36;61492.13;;;-147.04;100.00
39075;BME280;24826;52.070;20.970;2023-02-14T03:35:27;61416.56;;;-147.04;100.00
39075;BME280;24826;52.070;20.970;2023-02-14T03:38:29;61452.34;;;-147.04;100.00
39075;BME280;24826;52.070;20.970;2023-02-14T03:41:19;61416.56;;;-147.04;100.00
39075;BME280;24826;52.070;20.970;2023-02-14T03:44:07;61424.50;;;-147.04;100.00
39075;BME280;24826;52.070;20.970;2023-02-14T03:46:57;61422.53;;;-147.04;100.00
39075;BME280;24826;52.070;20.970;2023-02-14T03:49:54;61416.56;;;-147.04;100.00
39075;BME280;24826;52.070;20.970;2023-02-14T03:52:40;61436.44;;;-147.04;100.00
39075;BME280;24826;52.070;20.970;2023-02-14T03:55:49;61412.56;;;-147.04;100.00
39075;BME280;24826;52.070;20.970;2023-02-14T03:58:38;61404.63;;;-147.04;100.00
39075;BME280;24826;52.070;20.970;2023-02-14T04:01:33;61420.53;;;-147.04;100.00
39075;BME280;24826;52.070;20.970;2023-02-14T04:04:21;61416.56;;;-147.04;100.00
39075;BME280;24826;52.070;20.970;2023-02-14T04:07:12;61436.44;;;-147.04;100.00
39075;BME280;24826;52.070;20.970;2023-02-14T04:09:57;61464.28;;;-147.04;100.00
39075;BME280;24826;52.070;20.970;2023-02-14T04:12:42;61663.13;;;-147.04;100.00
39075;BME280;24826;52.070;20.970;2023-02-14T04:15:26;61416.56;;;-147.04;100.00
39075;BME280;24826;52.070;20.970;2023-02-14T04:18:11;61432.47;;;-147.04;100.00
39075;BME280;24826;52.070;20.970;2023-02-14T04:21:14;61414.56;;;-147.04;100.00
39075;BME280;24826;52.070;20.970;2023-02-14T04:23:58;61420.53;;;-147.04;100.00
39075;BME280;24826;52.070;20.970;2023-02-14T04:26:42;61456.31;;;-147.04;100.00
39075;BME280;24826;52.070;20.970;2023-02-14T04:29:47;61400.66;;;-147.04;100.00
39075;BME280;24826;52.070;20.970;2023-02-14T04:32:33;61440.41;;;-147.04;100.00
39075;BME280;24826;52.070;20.970;2023-02-14T04:35:18;61412.56;;;-147.04;100.00
39075;BME280;24826;52.070;20.970;2023-02-14T04:38:03;61452.34;;;-147.04;100.00
39075;BME280;24826;52.070;20.970;2023-02-14T04:40:48;61452.34;;;-147.04;100.00
39075;BME280;24826;52.070;20.970;2023-02-14T04:43:32;61452.34;;;-147.04;100.00
39075;BME280;24826;52.070;20.970;2023-02-14T04:46:17;61448.38;;;-147.04;100.00
39075;BME280;24826;52.070;20.970;2023-02-14T04:49:01;61452.34;;;-147.04;100.00
39075;BME280;24826;52.070;20.970;2023-02-14T04:51:46;61440.41;;;-147.04;100.00
39075;BME280;24826;52.070;20.970;2023-02-14T04:54:30;61406.63;;;-147.04;100.00
39075;BME280;24826;52.070;20.970;2023-02-14T04:57:15;61414.56;;;-147.04;100.00
39075;BME280;24826;52.070;20.970;2023-02-14T04:59:59;61420.53;;;-147.04;100.00
39075;BME280;24826;52.070;20.970;2023-02-14T05:02:44;61412.56;;;-147.04;100.00
39075;BME280;24826;52.070;20.970;2023-02-14T05:05:29;61420.53;;;-147.04;100.00
39075;BME280;24826;52.070;20.970;2023-02-14T05:08:13;61420.53;;;-147.04;100.00
39075;BME280;24826;52.070;20.970;2023-02-14T05:10:57;61422.53;;;-147.04;100.00
39075;BME280;24826;52.070;20.970;2023-02-14T05:13:42;61436.44;;;-147.04;100.00
39075;BME280;24826;52.070;20.970;2023-02-14T05:16:26;61440.41;;;-147.04;100.00
39075;BME280;24826;52.070;20.970;2023-02-14T05:19:11;61416.56;;;-147.04;100.00
39075;BME280;24826;52.070;20.970;2023-02-14T05:21:55;61432.47;;;-147.04;100.00
39075;BME280;24826;52.070;20.970;2023-02-14T05:24:39;61456.31;;;-147.04;100.00
39075;BME280;24826;52.070;20.970;2023-02-14T05:27:23;61400.66;;;-147.04;100.00
39075;BME280;24826;52.070;20.970;2023-02-14T05:30:07;61408.59;;;-147.04;100.00
39075;BME280;24826;52.070;20.970;2023-02-14T05:32:53;61420.53;;;-147.04;100.00
39075;BME280;24826;52.070;20.970;2023-02-14T05:35:37;61438.44;;;-147.04;100.00
39075;BME280;24826;52.070;20.970;2023-02-14T05:38:21;61436.44;;;-147.04;100.00
39075;BME280;24826;52.070;20.970;2023-02-14T05:41:09;61436.44;;;-147.04;100.00
39075;BME280;24826;52.070;20.970;2023-02-14T05:43:53;61394.69;;;-147.04;100.00
39075;BME280;24826;52.070;20.970;2023-02-14T05:46:38;61615.41;;;-147.04;100.00
39075;BME280;24826;52.070;20.970;2023-02-14T05:49:22;61452.34;;;-147.04;100.00
39075;BME280;24826;52.070;20.970;2023-02-14T05:52:07;61444.41;;;-147.04;100.00
39075;BME280;24826;52.070;20.970;2023-02-14T05:54:51;61426.50;;;-147.04;100.00
39075;BME280;24826;52.070;20.970;2023-02-14T05:57:36;61376.78;;;-147.04;100.00
39075;BME280;24826;52.070;20.970;2023-02-14T06:00:21;61410.59;;;-147.04;100.00
39075;BME280;24826;52.070;20.970;2023-02-14T06:03:06;61440.41;;;-147.04;100.00
39075;BME280;24826;52.070;20.970;2023-02-14T06:05:50;61452.34;;;-147.04;100.00
39075;BME280;24826;52.070;20.970;2023-02-14T06:08:35;61420.53;;;-147.04;100.00
39075;BME280;24826;52.070;20.970;2023-02-14T06:11:19;61420.53;;;-147.04;100.00
39075;BME280;24826;52.070;20.970;2023-02-14T06:14:04;61404.63;;;-147.04;100.00
39075;BME280;24826;52.070;20.970;2023-02-14T06:16:48;61436.44;;;-147.04;100.00
39075;BME280;24826;52.070;20.970;2023-02-14T06:19:32;61440.41;;;-147.04;100.00
39075;BME280;24826;52.070;20.970;2023-02-14T06:22:16;61430.47;;;-147.04;100.00
39075;BME280;24826;52.070;20.970;2023-02-14T06:25:01;61418.53;;;-147.04;100.00
39075;BME280;24826;52.070;20.970;2023-02-14T06:27:46;61428.47;;;-147.04;100.00
39075;BME280;24826;52.070;20.970;2023-02-14T06:30:30;61424.50;;;-147.04;100.00
39075;BME280;24826;52.070;20.970;2023-02-14T06:33:15;61440.41;;;-147.04;100.00
39075;BME280;24826;52.070;20.970;2023-02-14T06:35:59;61432.47;;;-147.04;100.00
39075;BME280;24826;52.070;20.970;2023-02-14T06:38:44;61422.53;;;-147.04;100.00
39075;BME280;24826;52.070;20.970;2023-02-14T06:41:28;61603.47;;;-147.04;100.00
39075;BME280;24826;52.070;20.970;2023-02-14T06:44:13;61436.44;;;-147.04;100.00
39075;BME280;24826;52.070;20.970;2023-02-14T06:46:58;61456.31;;;-147.04;100.00
39075;BME280;24826;52.070;20.970;2023-02-14T06:49:42;61444.41;;;-147.04;100.00
39075;BME280;24826;52.070;20.970;2023-02-14T06:52:27;61444.41;;;-147.04;100.00
39075;BME280;24826;52.070;20.970;2023-02-14T06:55:11;61420.53;;;-147.04;100.00
39075;BME280;24826;52.070;20.970;2023-02-14T06:57:57;61446.38;;;-147.04;100.00
39075;BME280;24826;52.070;20.970;2023-02-14T07:00:41;61428.47;;;-147.04;100.00
39075;BME280;24826;52.070;20.970;2023-02-14T07:03:26;61388.72;;;-147.04;100.00
39075;BME280;24826;52.070;20.970;2023-02-14T07:06:11;61430.47;;;-147.04;100.00
39075;BME280;24826;52.070;20.970;2023-02-14T07:08:55;61432.47;;;-147.04;100.00
39075;BME280;24826;52.070;20.970;2023-02-14T07:11:39;61454.34;;;-147.04;100.00
39075;BME280;24826;52.070;20.970;2023-02-14T07:14:23;61420.53;;;-147.04;100.00
39075;BME280;24826;52.070;20.970;2023-02-14T07:17:07;61438.44;;;-147.04;100.00
39075;BME280;24826;52.070;20.970;2023-02-14T07:19:52;61420.53;;;-147.04;100.00
39075;BME280;24826;52.070;20.970;2023-02-14T07:22:37;61450.34;;;-147.04;100.00
39075;BME280;24826;52.070;20.970;2023-02-14T07:25:21;61440.41;;;-147.04;100.00
39075;BME280;24826;52.070;20.970;2023-02-14T07:28:06;61412.56;;;-147.04;100.00
39075;BME280;24826;52.070;20.970;2023-02-14T07:30:50;61436.44;;;-147.04;100.00
39075;BME280;24826;52.070;20.970;2023-02-14T07:33:34;61440.41;;;-147.04;100.00
39075;BME280;24826;52.070;20.970;2023-02-14T07:36:19;61438.44;;;-147.04;100.00
39075;BME280;24826;52.070;20.970;2023-02-14T07:39:04;61446.38;;;-147.04;100.00
39075;BME280;24826;52.070;20.970;2023-02-14T07:41:48;61436.44;;;-147.04;100.00
39075;BME280;24826;52.070;20.970;2023-02-14T07:44:33;61444.41;;;-147.04;100.00
39075;BME280;24826;52.070;20.970;2023-02-14T07:47:18;61460.31;;;-147.04;100.00
39075;BME280;24826;52.070;20.970;2023-02-14T07:50:02;61440.41;;;-147.04;100.00
39075;BME280;24826;52.070;20.970;2023-02-14T07:52:47;61482.19;;;-147.04;100.00
39075;BME280;24826;52.070;20.970;2023-02-14T07:55:31;61458.31;;;-147.04;100.00
39075;BME280;24826;52.070;20.970;2023-02-14T07:58:16;61448.38;;;-147.04;100.00
39075;BME280;24826;52.070;20.970;2023-02-14T08:01:00;61476.22;;;-147.04;100.00
39075;BME280;24826;52.070;20.970;2023-02-14T08:03:45;61420.53;;;-147.04;100.00
39075;BME280;24826;52.070;20.970;2023-02-14T08:06:33;61426.50;;;-147.04;100.00
39075;BME280;24826;52.070;20.970;2023-02-14T08:09:18;61460.31;;;-147.04;100.00
39075;BME280;24826;52.070;20.970;2023-02-14T08:12:08;61430.47;;;-147.04;100.00
39075;BME280;24826;52.070;20.970;2023-02-14T08:15:12;61470.25;;;-147.04;100.00
39075;BME280;24826;52.070;20.970;2023-02-14T08:18:17;61440.41;;;-147.04;100.00
39075;BME280;24826;52.070;20.970;2023-02-14T08:21:02;61442.41;;;-147.04;100.00
39075;BME280;24826;52.070;20.970;2023-02-14T08:23:47;61444.41;;;-147.04;100.00
39075;BME280;24826;52.070;20.970;2023-02-14T08:26:31;61416.56;;;-147.04;100.00
39075;BME280;24826;52.070;20.970;2023-02-14T08:29:15;61402.63;;;-147.04;100.00
39075;BME280;24826;52.070;20.970;2023-02-14T08:32:00;61432.47;;;-147.04;100.00
39075;BME280;24826;52.070;20.970;2023-02-14T08:34:44;61440.41;;;-147.04;100.00
39075;BME280;24826;52.070;20.970;2023-02-14T08:37:29;61432.47;;;-147.04;100.00
39075;BME280;24826;52.070;20.970;2023-02-14T08:40:13;61466.25;;;-147.04;100.00
39075;BME280;24826;52.070;20.970;2023-02-14T08:42:58;61460.31;;;-147.04;100.00
39075;BME280;24826;52.070;20.970;2023-02-14T08:45:43;61422.53;;;-147.04;100.00
39075;BME280;24826;52.070;20.970;2023-02-14T08:48:27;61456.31;;;-147.04;100.00
39075;BME280;24826;52.070;20.970;2023-02-14T08:51:13;61458.31;;;-147.04;100.00
39075;BME280;24826;52.070;20.970;2023-02-14T08:53:58;61464.28;;;-147.04;100.00
39075;BME280;24826;52.070;20.970;2023-02-14T08:56:42;61452.34;;;-147.04;100.00
39075;BME280;24826;52.070;20.970;2023-02-14T08:59:27;61512.00;;;-147.04;100.00
39075;BME280;24826;52.070;20.970;2023-02-14T09:02:12;61468.25;;;-147.04;100.00
39075;BME280;24826;52.070;20.970;2023-02-14T09:04:57;61464.28;;;-147.04;100.00
39075;BME280;24826;52.070;20.970;2023-02-14T09:07:41;61482.19;;;-147.04;100.00
39075;BME280;24826;52.070;20.970;2023-02-14T09:10:26;61480.19;;;-147.04;100.00
39075;BME280;24826;52.070;20.970;2023-02-14T09:13:11;61486.16;;;-147.04;100.00
39075;BME280;24826;52.070;20.970;2023-02-14T09:15:56;61436.44;;;-147.04;100.00
39075;BME280;24826;52.070;20.970;2023-02-14T09:18:40;61504.03;;;-147.04;100.00
39075;BME280;24826;52.070;20.970;2023-02-14T09:21:26;61504.03;;;-147.04;100.00
39075;BME280;24826;52.070;20.970;2023-02-14T09:24:11;61500.06;;;-147.04;100.00
39075;BME280;24826;52.070;20.970;2023-02-14T09:26:56;61494.09;;;-147.04;100.00
39075;BME280;24826;52.070;20.970;2023-02-14T09:29:43;61486.16;;;-147.04;100.00
39075;BME280;24826;52.070;20.970;2023-02-14T09:32:27;61480.19;;;-147.04;100.00
39075;BME280;24826;52.070;20.970;2023-02-14T09:35:12;61486.16;;;-147.04;100.00
39075;BME280;24826;52.070;20.970;2023-02-14T09:38:15;61466.25;;;-147.04;100.00
39075;BME280;24826;52.070;20.970;2023-02-14T09:41:05;61490.13;;;-147.04;100.00
39075;BME280;24826;52.070;20.970;2023-02-14T09:43:58;61468.25;;;-147.04;100.00
39075;BME280;24826;52.070;20.970;2023-02-14T09:46:51;61492.13;;;-147.04;100.00
39075;BME280;24826;52.070;20.970;2023-02-14T09:49:38;61428.47;;;-147.04;100.00
39075;BME280;24826;52.070;20.970;2023-02-14T09:52:26;61482.19;;;-147.04;100.00
39075;BME280;24826;52.070;20.970;2023-02-14T09:55:14;61480.19;;;-147.04;100.00
39075;BME280;24826;52.070;20.970;2023-02-14T09:58:15;61470.25;;;-147.04;100.00
39075;BME280;24826;52.070;20.970;2023-02-14T10:04:15;61476.22;;;-147.04;100.00
39075;BME280;24826;52.070;20.970;2023-02-14T10:10:13;61498.09;;;-147.04;100.00
39075;BME280;24826;52.070;20.970;2023-02-14T10:19:03;61468.25;;;-147.04;100.00
39075;BME280;24826;52.070;20.970;2023-02-14T10:22:03;61454.34;;;-147.04;100.00
39075;BME280;24826;52.070;20.970;2023-02-14T10:24:55;61444.41;;;-147.04;100.00
39075;BME280;24826;52.070;20.970;2023-02-14T10:27:43;61426.50;;;-147.04;100.00
39075;BME280;24826;52.070;20.970;2023-02-14T10:30:36;61508.03;;;-147.04;100.00
39075;BME280;24826;52.070;20.970;2023-02-14T10:33:26;61531.88;;;-147.04;100.00
39075;BME280;24826;52.070;20.970;2023-02-14T10:36:22;61521.94;;;-147.04;100.00
39075;BME280;24826;52.070;20.970;2023-02-14T10:45:48;61500.06;;;-147.04;100.00
39075;BME280;24826;52.070;20.970;2023-02-14T10:55:13;61450.34;;;-147.04;100.00
39075;BME280;24826;52.070;20.970;2023-02-14T10:58:02;61515.97;;;-147.04;100.00
39075;BME280;24826;52.070;20.970;2023-02-14T11:00:57;61490.13;;;-147.04;100.00
39075;BME280;24826;52.070;20.970;2023-02-14T11:03:58;61500.06;;;-147.04;100.00
39075;BME280;24826;52.070;20.970;2023-02-14T11:06:50;61519.94;;;-147.04;100.00
39075;BME280;24826;52.070;20.970;2023-02-14T11:09:34;61500.06;;;-147.04;100.00
39075;BME280;24826;52.070;20.970;2023-02-14T11:12:36;61627.34;;;-147.04;100.00
39075;BME280;24826;52.070;20.970;2023-02-14T11:15:32;61468.25;;;-147.04;100.00
39075;BME280;24826;52.070;20.970;2023-02-14T11:18:24;61512.00;;;-147.04;100.00
39075;BME280;24826;52.070;20.970;2023-02-14T11:21:11;61494.09;;;-147.04;100.00
39075;BME280;24826;52.070;20.970;2023-02-14T11:23:56;61496.09;;;-147.04;100.00
39075;BME280;24826;52.070;20.970;2023-02-14T11:26:44;61525.91;;;-147.04;100.00
39075;BME280;24826;52.070;20.970;2023-02-14T11:29:44;61508.03;;;-147.04;100.00
39075;BME280;24826;52.070;20.970;2023-02-14T11:32:31;61494.09;;;-147.04;100.00
39075;BME280;24826;52.070;20.970;2023-02-14T11:35:20;61470.25;;;-147.04;100.00
39075;BME280;24826;52.070;20.970;2023-02-14T11:38:40;61525.91;;;-147.04;100.00
39075;BME280;24826;52.070;20.970;2023-02-14T11:41:45;61502.06;;;-147.04;100.00
39075;BME280;24826;52.070;20.970;2023-02-14T11:44:31;61496.09;;;-147.04;100.00
39075;BME280;24826;52.070;20.970;2023-02-14T11:47:27;61496.09;;;-147.04;100.00
39075;BME280;24826;52.070;20.970;2023-02-14T11:50:22;61488.13;;;-147.04;100.00
39075;BME280;24826;52.070;20.970;2023-02-14T11:53:10;61438.44;;;-147.04;100.00
39075;BME280;24826;52.070;20.970;2023-02-14T11:55:57;61476.22;;;-147.04;100.00
39075;BME280;24826;52.070;20.970;2023-02-14T11:58:49;61466.25;;;-147.04;100.00
39075;BME280;24826;52.070;20.970;2023-02-14T12:01:37;61480.19;;;-147.04;100.00
39075;BME280;24826;52.070;20.970;2023-02-14T12:04:30;61472.22;;;-147.04;100.00
39075;BME280;24826;52.070;20.970;2023-02-14T12:12:59;61504.03;;;-147.04;100.00
39075;BME280;24826;52.070;20.970;2023-02-14T12:18:52;61468.25;;;-147.04;100.00
39075;BME280;24826;52.070;20.970;2023-02-14T12:21:57;61472.22;;;-147.04;100.00
39075;BME280;24826;52.070;20.970;2023-02-14T12:27:53;61486.16;;;-147.04;100.00
39075;BME280;24826;52.070;20.970;2023-02-14T12:30:39;61506.03;;;-147.04;100.00
39075;BME280;24826;52.070;20.970;2023-02-14T12:33:24;61490.13;;;-147.04;100.00
39075;BME280;24826;52.070;20.970;2023-02-14T12:46:08;61454.34;;;-147.04;100.00
39075;BME280;24826;52.070;20.970;2023-02-14T12:58:17;61456.31;;;-147.04;100.00
39075;BME280;24826;52.070;20.970;2023-02-14T13:16:30;61444.41;;;-147.04;100.00
39075;BME280;24826;52.070;20.970;2023-02-14T13:22:10;61452.34;;;-147.04;100.00
39075;BME280;24826;52.070;20.970;2023-02-14T13:25:22;61420.53;;;-147.04;100.00
39075;BME280;24826;52.070;20.970;2023-02-14T13:28:06;61480.19;;;-147.04;100.00
39075;BME280;24826;52.070;20.970;2023-02-14T13:30:54;61444.41;;;-147.04;100.00
39075;BME280;24826;52.070;20.970;2023-02-14T13:33:43;61404.63;;;-147.04;100.00
39075;BME280;24826;52.070;20.970;2023-02-14T13:36:32;61438.44;;;-147.04;100.00
39075;BME280;24826;52.070;20.970;2023-02-14T13:39:32;61462.28;;;-147.04;100.00
39075;BME280;24826;52.070;20.970;2023-02-14T13:48:24;61480.19;;;-147.04;100.00
39075;BME280;24826;52.070;20.970;2023-02-14T13:51:09;61462.28;;;-147.04;100.00
39075;BME280;24826;52.070;20.970;2023-02-14T13:53:53;61412.56;;;-147.04;100.00
39075;BME280;24826;52.070;20.970;2023-02-14T13:56:38;61392.69;;;-147.04;100.00
39075;BME280;24826;52.070;20.970;2023-02-14T13:59:30;61470.25;;;-147.04;100.00
39075;BME280;24826;52.070;20.970;2023-02-14T14:17:18;61396.66;;;-147.04;100.00
39075;BME280;24826;52.070;20.970;2023-02-14T14:22:59;61392.69;;;-147.04;100.00
39075;BME280;24826;52.070;20.970;2023-02-14T14:25:44;61462.28;;;-147.04;100.00
39075;BME280;24826;52.070;20.970;2023-02-14T14:28:30;61384.75;;;-147.04;100.00
39075;BME280;24826;52.070;20.970;2023-02-14T14:31:19;61436.44;;;-147.04;100.00
39075;BME280;24826;52.070;20.970;2023-02-14T14:34:03;61454.34;;;-147.04;100.00
39075;BME280;24826;52.070;20.970;2023-02-14T14:36:48;61428.47;;;-147.04;100.00
39075;BME280;24826;52.070;20.970;2023-02-14T14:39:34;61432.47;;;-147.04;100.00
39075;BME280;24826;52.070;20.970;2023-02-14T14:42:19;61424.50;;;-147.04;100.00
39075;BME280;24826;52.070;20.970;2023-02-14T14:45:28;61424.50;;;-147.04;100.00
39075;BME280;24826;52.070;20.970;2023-02-14T14:48:16;61428.47;;;-147.04;100.00
39075;BME280;24826;52.070;20.970;2023-02-14T14:51:03;61462.28;;;-147.04;100.00
39075;BME280;24826;52.070;20.970;2023-02-14T14:53:52;61422.53;;;-147.04;100.00
39075;BME280;24826;52.070;20.970;2023-02-14T14:56:49;61422.53;;;-147.04;100.00
39075;BME280;24826;52.070;20.970;2023-02-14T14:59:35;61422.53;;;-147.04;100.00
39075;BME280;24826;52.070;20.970;2023-02-14T15:02:25;61440.41;;;-147.04;100.00
39075;BME280;24826;52.070;20.970;2023-02-14T15:05:23;61398.66;;;-147.04;100.00
39075;BME280;24826;52.070;20.970;2023-02-14T15:08:28;61438.44;;;-147.04;100.00
39075;BME280;24826;52.070;20.970;2023-02-14T15:11:21;61434.44;;;-147.04;100.00
39075;BME280;24826;52.070;20.970;2023-02-14T15:14:28;61400.66;;;-147.04;100.00
39075;BME280;24826;52.070;20.970;2023-02-14T15:17:18;61428.47;;;-147.04;100.00
39075;BME280;24826;52.070;20.970;2023-02-14T15:20:12;61452.34;;;-147.04;100.00
39075;BME280;24826;52.070;20.970;2023-02-14T15:22:58;61432.47;;;-147.04;100.00
39075;BME280;24826;52.070;20.970;2023-02-14T15:25:43;61436.44;;;-147.04;100.00
39075;BME280;24826;52.070;20.970;2023-02-14T15:28:32;61462.28;;;-147.04;100.00
39075;BME280;24826;52.070;20.970;2023-02-14T15:31:17;61408.59;;;-147.04;100.00
39075;BME280;24826;52.070;20.970;2023-02-14T15:34:03;61428.47;;;-147.04;100.00
39075;BME280;24826;52.070;20.970;2023-02-14T15:36:48;61436.44;;;-147.04;100.00
39075;BME280;24826;52.070;20.970;2023-02-14T15:39:38;61418.53;;;-147.04;100.00
39075;BME280;24826;52.070;20.970;2023-02-14T15:42:31;61444.41;;;-147.04;100.00
39075;BME280;24826;52.070;20.970;2023-02-14T15:45:20;61478.19;;;-147.04;100.00
39075;BME280;24826;52.070;20.970;2023-02-14T15:48:13;61416.56;;;-147.04;100.00
39075;BME280;24826;52.070;20.970;2023-02-14T15:51:00;61394.69;;;-147.04;100.00
39075;BME280;24826;52.070;20.970;2023-02-14T15:53:49;61436.44;;;-147.04;100.00
39075;BME280;24826;52.070;20.970;2023-02-14T15:56:40;61432.47;;;-147.04;100.00
39075;BME280;24826;52.070;20.970;2023-02-14T15:59:28;61450.34;;;-147.04;100.00
39075;BME280;24826;52.070;20.970;2023-02-14T16:02:27;61416.56;;;-147.04;100.00
39075;BME280;24826;52.070;20.970;2023-02-14T16:05:22;61432.47;;;-147.04;100.00
39075;BME280;24826;52.070;20.970;2023-02-14T16:08:33;61446.38;;;-147.04;100.00
39075;BME280;24826;52.070;20.970;2023-02-14T16:11:30;61416.56;;;-147.04;100.00
39075;BME280;24826;52.070;20.970;2023-02-14T16:14:35;61418.53;;;-147.04;100.00
39075;BME280;24826;52.070;20.970;2023-02-14T16:17:31;61432.47;;;-147.04;100.00